Richland, Oregon
Current Conditions -  °F | °C
As of 6:23 AM on Thursday 18 Dec 2014 (Local Time) from KBKE Reporting Station
Overcast Overcast  
Wind Chill: 28°   Ceiling: 6500
Heat Index: 33°   Visibility: 10mi
Dew Point: 31°   Wind: 6mph
Humidity: 92%   Direction: 110°ESE
Pressure: 30.03"   Gusts: NA
Location:  44.77°N, 117.17°W
Report Text: KBKE 181423Z AUTO 11005KT 10SM SCT016 OVC065 01/M01 A3003 RMK AO2 T00061006 $
Loading
Personal Weather Stations






























Interactive Weather Map New forecast layout! Learn more

10-Day Weather Forecast

Advertisements
Track Severe Weather on mobile